Terminal Aerodrome Forecast
Issued by NWS

Home | Current Version | Previous Version | Text Only | Print | Product List | Glossary On
Versions: 1 2 3 4 5 6 7 8 9 10 11 12 13 14 15 16 17 18 19
000
FTUS46 KSGX 011700
TAFSNA
TAF
KSNA 011727Z 0118/0218 23007KT P6SM FEW200
     FM020300 VRB03KT P6SM VCFG FEW004 SCT200
     FM021000 VRB03KT 2SM BR VCFG SCT003 SCT200
      TEMPO 0211/0214 1SM BR BKN003
     FM021500 VRB03KT 5SM BR VCFG FEW004 BKN200=

USA.gov is the U.S. government's official web portal to all federal, state and local government web resources and services.